Time;durP1;ratioP1;P1;durP2;ratioP2;P2;SDS_P1;SDS_P2;PMS_P1;PMS_P2;Temp;Humidity;BMP_temperature;BMP_pressure;BME280_temperature;BME280_humidity;BME280_pressure;Samples;Min_cycle;Max_cycle;Signal;HPM_P1;HPM_P2
2021/06/05 00:00:40;;;;;;;13.07;11.97;;;21.00;85.40;;;;;;5113790;28;20434;-76
2021/06/05 00:03:08;;;;;;;15.33;13.80;;;20.90;85.80;;;;;;5113785;28;20576;-76
2021/06/05 00:05:38;;;;;;;15.57;14.13;;;20.90;86.80;;;;;;5113693;28;20453;-76
2021/06/05 00:08:05;;;;;;;13.77;12.57;;;20.80;87.20;;;;;;5113568;28;20999;-76
2021/06/05 00:10:35;;;;;;;12.67;11.40;;;20.70;87.50;;;;;;5113329;28;20486;-76
2021/06/05 00:13:02;;;;;;;13.47;12.27;;;20.70;87.60;;;;;;5113731;28;20443;-76
2021/06/05 00:15:31;;;;;;;11.50;10.50;;;20.70;87.40;;;;;;5113612;28;20450;-76
2021/06/05 00:17:58;;;;;;;12.10;11.00;;;20.70;87.20;;;;;;5113200;28;20462;-76
2021/06/05 00:20:29;;;;;;;12.20;11.03;;;20.70;87.40;;;;;;5113276;28;20958;-76
2021/06/05 00:22:55;;;;;;;12.87;11.67;;;20.70;86.60;;;;;;5113706;28;20454;-76
2021/06/05 00:25:22;;;;;;;16.30;14.67;;;20.70;86.50;;;;;;5113573;28;20446;-76
2021/06/05 00:27:48;;;;;;;17.20;15.60;;;20.70;87.30;;;;;;5113404;28;20451;-76
2021/06/05 00:30:15;;;;;;;20.00;18.10;;;20.60;87.00;;;;;;5113458;28;20564;-76
2021/06/05 00:32:42;;;;;;;18.50;16.77;;;20.50;87.80;;;;;;5113509;28;20443;-76
2021/06/05 00:35:09;;;;;;;17.80;16.20;;;20.50;88.40;;;;;;5113501;28;20454;-76
2021/06/05 00:37:36;;;;;;;20.30;17.77;;;20.50;88.80;;;;;;5113077;28;20948;-76
2021/06/05 00:40:04;;;;;;;18.33;16.60;;;20.50;89.00;;;;;;5113136;28;20880;-76
2021/06/05 00:42:30;;;;;;;15.47;14.07;;;20.50;88.90;;;;;;5113117;28;20799;-76
2021/06/05 00:44:57;;;;;;;18.10;15.50;;;20.50;88.90;;;;;;5113353;28;20450;-76
2021/06/05 00:47:23;;;;;;;19.50;15.80;;;20.50;88.80;;;;;;5113370;28;20447;-76
2021/06/05 00:49:50;;;;;;;17.40;15.70;;;20.60;88.40;;;;;;5116096;28;20486;-76
2021/06/05 00:52:20;;;;;;;15.93;14.53;;;20.60;88.00;;;;;;5117024;28;20450;-76
2021/06/05 00:54:47;;;;;;;14.17;12.87;;;20.60;87.60;;;;;;5117749;28;20443;-76
2021/06/05 00:57:14;;;;;;;15.83;14.23;;;20.60;87.50;;;;;;5116885;28;20438;-76
2021/06/05 00:59:40;;;;;;;15.80;14.40;;;20.60;87.30;;;;;;5116417;28;20490;-77
2021/06/05 01:02:07;;;;;;;16.47;14.93;;;20.60;87.00;;;;;;5116738;28;20443;-76
2021/06/05 01:04:34;;;;;;;20.40;17.50;;;20.60;87.10;;;;;;5116726;28;20446;-76
2021/06/05 01:07:07;;;;;;;23.53;18.00;;;20.60;87.60;;;;;;5116739;28;20538;-76
2021/06/05 01:09:37;;;;;;;17.10;15.40;;;20.60;88.40;;;;;;5116236;28;20470;-76
2021/06/05 01:12:09;;;;;;;18.50;16.03;;;20.70;88.80;;;;;;5116244;28;20940;-76
2021/06/05 01:14:41;;;;;;;17.90;16.10;;;20.70;88.30;;;;;;5116263;27;20431;-76
2021/06/05 01:17:12;;;;;;;17.40;15.70;;;20.70;87.90;;;;;;5116475;28;20802;-76
2021/06/05 01:19:52;;;;;;;17.10;15.40;;;20.60;87.60;;;;;;5116353;28;20520;-76
2021/06/05 01:23:01;;;;;;;15.80;14.40;;;20.60;87.50;;;;;;5116354;28;20438;-76
2021/06/05 01:25:49;;;;;;;15.00;13.67;;;20.60;87.30;;;;;;5116208;27;20443;-76
2021/06/05 01:28:20;;;;;;;18.50;15.93;;;20.50;87.00;;;;;;5115932;28;20458;-76
2021/06/05 01:30:50;;;;;;;17.23;15.80;;;20.50;88.00;;;;;;5116103;28;20463;-76
2021/06/05 01:33:20;;;;;;;17.10;14.80;;;20.50;87.10;;;;;;5116180;28;20474;-76
2021/06/05 01:35:47;;;;;;;16.27;14.77;;;20.50;86.90;;;;;;5115913;28;20940;-76
2021/06/05 01:38:15;;;;;;;19.03;15.33;;;20.50;86.90;;;;;;5116055;28;20835;-75
2021/06/05 01:40:44;;;;;;;15.00;13.70;;;20.50;87.00;;;;;;5116009;28;20513;-76
2021/06/05 01:43:11;;;;;;;16.93;15.50;;;20.50;86.90;;;;;;5115638;28;20818;-76
2021/06/05 01:45:41;;;;;;;18.27;16.47;;;20.50;87.40;;;;;;5115898;28;20496;-76
2021/06/05 01:48:10;;;;;;;21.87;19.83;;;20.50;88.00;;;;;;5115818;28;20462;-76
2021/06/05 01:50:39;;;;;;;19.30;17.37;;;20.50;88.90;;;;;;5115728;28;20482;-76
2021/06/05 01:53:09;;;;;;;17.47;15.73;;;20.50;89.40;;;;;;5115750;28;20446;-76
2021/06/05 01:55:39;;;;;;;17.03;15.53;;;20.50;89.40;;;;;;5115754;28;20430;-76
2021/06/05 01:58:13;;;;;;;18.63;16.83;;;20.50;89.60;;;;;;5115427;28;20471;-76
2021/06/05 02:00:43;;;;;;;17.80;16.20;;;20.50;89.40;;;;;;5114649;27;20433;-76
2021/06/05 02:03:10;;;;;;;17.90;16.10;;;20.50;89.60;;;;;;5115643;28;20484;-76
2021/06/05 02:05:37;;;;;;;21.90;19.60;;;20.50;90.00;;;;;;5115587;28;20443;-76
2021/06/05 02:08:04;;;;;;;27.43;24.53;;;20.50;90.00;;;;;;5115396;28;20467;-76
2021/06/05 02:10:34;;;;;;;31.27;28.10;;;20.50;90.30;;;;;;5115367;28;20478;-76
2021/06/05 02:13:00;;;;;;;30.97;27.63;;;20.50;90.60;;;;;;5115048;28;20442;-76
2021/06/05 02:15:32;;;;;;;31.43;27.77;;;20.50;90.80;;;;;;5115343;28;20439;-76
2021/06/05 02:18:04;;;;;;;29.83;26.83;;;20.50;91.00;;;;;;5115215;28;20467;-75
2021/06/05 02:20:35;;;;;;;30.77;27.43;;;20.60;91.20;;;;;;5115275;28;20428;-76
2021/06/05 02:23:05;;;;;;;29.87;26.77;;;20.50;91.40;;;;;;5115255;28;20431;-76
2021/06/05 02:25:32;;;;;;;30.97;27.90;;;20.40;91.50;;;;;;5115240;28;20427;-76
2021/06/05 02:28:03;;;;;;;30.70;27.40;;;20.40;91.70;;;;;;5115065;28;20463;-75
2021/06/05 02:30:30;;;;;;;31.60;27.80;;;20.40;91.80;;;;;;5115057;28;20467;-76
2021/06/05 02:32:58;;;;;;;28.50;25.70;;;20.40;92.00;;;;;;5115007;28;20828;-76
2021/06/05 02:35:29;;;;;;;31.17;26.87;;;20.40;92.00;;;;;;5114918;28;20450;-76
2021/06/05 02:37:56;;;;;;;34.00;30.40;;;20.40;92.20;;;;;;5114873;28;20485;-76
2021/06/05 02:40:27;;;;;;;32.80;28.60;;;20.40;92.20;;;;;;5114817;28;20450;-76
2021/06/05 02:42:56;;;;;;;32.43;27.60;;;20.40;92.30;;;;;;5114858;28;20415;-76
2021/06/05 02:45:28;;;;;;;32.73;29.40;;;20.40;92.50;;;;;;5114808;28;20929;-76
2021/06/05 02:47:58;;;;;;;30.50;27.50;;;20.40;92.60;;;;;;5114651;28;20889;-76
2021/06/05 02:50:30;;;;;;;33.70;28.80;;;20.40;92.50;;;;;;5114632;28;20479;-76
2021/06/05 02:52:57;;;;;;;33.17;28.90;;;20.50;92.50;;;;;;5114713;28;20442;-76
2021/06/05 02:55:24;;;;;;;33.10;27.70;;;20.50;92.70;;;;;;5114550;28;20442;-76
2021/06/05 02:57:51;;;;;;;32.00;28.50;;;20.50;92.40;;;;;;5114471;28;20442;-76
2021/06/05 03:00:22;;;;;;;35.00;29.93;;;20.50;92.50;;;;;;5114067;28;20466;-76
2021/06/05 03:02:48;;;;;;;33.67;29.90;;;20.50;92.70;;;;;;5114448;28;20429;-76
2021/06/05 03:05:15;;;;;;;34.07;29.67;;;20.50;92.70;;;;;;5114117;28;20943;-76
2021/06/05 03:07:42;;;;;;;33.73;29.97;;;20.50;92.80;;;;;;5114273;28;20827;-76
2021/06/05 03:10:11;;;;;;;37.00;31.47;;;20.50;92.80;;;;;;5114233;28;20481;-76
2021/06/05 03:12:38;;;;;;;34.70;30.17;;;20.50;92.90;;;;;;5114261;28;20499;-76
2021/06/05 03:15:06;;;;;;;34.20;30.50;;;20.50;92.90;;;;;;5114317;28;20431;-76
2021/06/05 03:17:33;;;;;;;30.90;27.60;;;20.50;92.90;;;;;;5114254;28;20525;-76
2021/06/05 03:20:00;;;;;;;34.20;29.57;;;20.50;93.20;;;;;;5114083;28;20459;-76
2021/06/05 03:22:26;;;;;;;35.70;30.10;;;20.50;93.00;;;;;;5113822;28;20454;-76
2021/06/05 03:24:53;;;;;;;33.17;29.67;;;20.50;92.90;;;;;;5113846;28;20867;-76
2021/06/05 03:27:20;;;;;;;35.70;31.50;;;20.50;92.90;;;;;;5114589;28;20447;-76
2021/06/05 03:29:46;;;;;;;37.30;30.87;;;20.40;93.10;;;;;;5113619;28;20980;-76
2021/06/05 03:32:13;;;;;;;35.10;31.40;;;20.40;93.20;;;;;;5113990;28;20442;-76
2021/06/05 03:34:39;;;;;;;34.13;30.43;;;20.30;93.10;;;;;;5114014;28;20447;-76
2021/06/05 03:37:07;;;;;;;35.30;30.60;;;20.20;93.20;;;;;;5113978;28;20443;-76
2021/06/05 03:39:33;;;;;;;34.13;30.50;;;20.20;93.40;;;;;;5113918;28;20478;-76
2021/06/05 03:42:01;;;;;;;34.90;30.37;;;20.20;93.40;;;;;;5113947;28;20436;-76
2021/06/05 03:44:27;;;;;;;34.70;31.00;;;20.20;93.50;;;;;;5113857;28;20442;-76
2021/06/05 03:46:54;;;;;;;32.50;28.90;;;20.20;93.50;;;;;;5113938;28;20454;-76
2021/06/05 03:49:20;;;;;;;33.97;30.10;;;20.30;93.80;;;;;;5113780;28;20529;-75
2021/06/05 03:51:46;;;;;;;35.63;31.73;;;20.30;93.50;;;;;;5113781;28;20524;-76
2021/06/05 03:54:13;;;;;;;33.27;29.73;;;20.30;93.50;;;;;;5113840;28;20449;-76
2021/06/05 03:56:39;;;;;;;34.37;30.87;;;20.40;93.50;;;;;;5113481;28;20947;-76
2021/06/05 03:59:08;;;;;;;39.93;33.10;;;20.40;93.50;;;;;;5113453;28;20475;-76
2021/06/05 04:01:35;;;;;;;43.20;31.50;;;20.40;93.60;;;;;;5113767;28;20439;-76
2021/06/05 04:04:01;;;;;;;36.37;32.00;;;20.40;93.40;;;;;;5113751;28;20447;-76
2021/06/05 04:06:28;;;;;;;35.77;31.73;;;20.40;93.40;;;;;;5113425;28;20447;-76
2021/06/05 04:08:56;;;;;;;37.73;30.17;;;20.40;93.30;;;;;;5113628;28;20455;-76
2021/06/05 04:11:23;;;;;;;31.20;28.00;;;20.50;93.40;;;;;;5113551;28;20489;-76
2021/06/05 04:13:50;;;;;;;28.03;25.13;;;20.50;93.30;;;;;;5113732;28;20447;-76
2021/06/05 04:16:18;;;;;;;32.57;29.00;;;20.50;93.10;;;;;;5113725;28;20438;-75
2021/06/05 04:18:45;;;;;;;29.57;26.20;;;20.60;92.80;;;;;;5113614;28;20471;-75
2021/06/05 04:21:16;;;;;;;31.27;28.10;;;20.60;92.70;;;;;;5113557;28;20502;-75
2021/06/05 04:23:43;;;;;;;29.37;26.20;;;20.60;92.60;;;;;;5114938;28;20435;-76
2021/06/05 04:26:09;;;;;;;29.73;26.47;;;20.60;92.50;;;;;;5117494;28;20442;-76
2021/06/05 04:28:36;;;;;;;29.50;26.33;;;20.70;92.40;;;;;;5117320;28;20474;-75
2021/06/05 04:31:04;;;;;;;30.70;27.40;;;20.70;92.30;;;;;;5117305;28;20478;-75
2021/06/05 04:33:33;;;;;;;33.30;29.43;;;20.70;92.10;;;;;;5117382;28;20447;-75
2021/06/05 04:36:02;;;;;;;31.07;27.80;;;20.70;92.10;;;;;;5117326;28;20438;-75
2021/06/05 04:38:29;;;;;;;35.03;28.53;;;20.70;92.20;;;;;;5117139;28;20470;-75
2021/06/05 04:40:55;;;;;;;30.57;27.43;;;20.70;92.40;;;;;;5117259;28;20439;-76
2021/06/05 04:43:23;;;;;;;28.77;25.73;;;20.70;92.50;;;;;;5117125;28;20447;-76
2021/06/05 04:45:50;;;;;;;34.30;26.40;;;20.70;92.40;;;;;;5117107;28;20492;-76
2021/06/05 04:48:16;;;;;;;30.03;25.70;;;20.70;92.50;;;;;;5116767;28;21025;-75
2021/06/05 04:50:45;;;;;;;24.50;21.77;;;20.80;92.50;;;;;;5116980;28;20481;-75
2021/06/05 04:53:11;;;;;;;29.00;25.90;;;20.70;92.30;;;;;;5116736;28;20949;-75
2021/06/05 04:55:38;;;;;;;29.83;22.40;;;20.70;92.20;;;;;;5116927;28;20447;-75
2021/06/05 04:58:05;;;;;;;26.50;23.73;;;20.80;92.20;;;;;;5116363;28;20458;-75
2021/06/05 05:00:34;;;;;;;24.07;21.50;;;20.80;92.10;;;;;;5116893;28;20654;-75
2021/06/05 05:03:01;;;;;;;29.63;26.53;;;20.80;92.20;;;;;;5116754;28;20447;-75
2021/06/05 05:05:28;;;;;;;23.03;20.70;;;20.80;92.30;;;;;;5116482;28;20944;-75
2021/06/05 05:07:56;;;;;;;21.47;18.57;;;20.80;92.30;;;;;;5116680;28;20449;-75
2021/06/05 05:10:25;;;;;;;28.07;23.07;;;20.80;92.20;;;;;;5116257;28;20988;-75
2021/06/05 05:12:52;;;;;;;27.13;24.17;;;20.90;92.20;;;;;;5116589;28;20447;-75
2021/06/05 05:15:18;;;;;;;24.00;21.40;;;20.90;92.10;;;;;;5116620;28;20492;-75
2021/06/05 05:17:44;;;;;;;26.87;24.07;;;20.90;92.10;;;;;;5116464;28;20450;-75
2021/06/05 05:20:14;;;;;;;24.07;21.57;;;21.00;92.10;;;;;;5116487;28;20454;-75
2021/06/05 05:22:41;;;;;;;27.47;22.63;;;21.00;92.10;;;;;;5116676;28;20431;-75
2021/06/05 05:25:11;;;;;;;21.67;19.37;;;21.00;91.90;;;;;;5116428;28;20447;-76
2021/06/05 05:27:37;;;;;;;27.37;20.87;;;21.10;91.80;;;;;;5116045;28;20944;-75
2021/06/05 05:30:05;;;;;;;25.70;23.00;;;21.10;91.60;;;;;;5115935;28;20442;-76
2021/06/05 05:32:31;;;;;;;27.03;24.07;;;21.10;91.60;;;;;;5116191;27;20496;-76
2021/06/05 05:34:58;;;;;;;29.20;22.90;;;21.10;91.70;;;;;;5115106;28;20504;-76
2021/06/05 05:37:24;;;;;;;27.97;24.30;;;21.10;91.70;;;;;;5116454;28;20450;-76
2021/06/05 05:39:50;;;;;;;31.13;23.60;;;21.10;91.60;;;;;;5116822;28;20484;-76
2021/06/05 05:42:18;;;;;;;30.70;24.80;;;21.10;91.50;;;;;;5116755;28;20439;-76
2021/06/05 05:44:44;;;;;;;30.93;24.90;;;21.10;91.80;;;;;;5116240;28;20488;-76
2021/06/05 05:47:10;;;;;;;33.57;26.23;;;21.10;91.60;;;;;;5116341;28;20468;-76
2021/06/05 05:49:36;;;;;;;29.10;25.07;;;21.00;91.80;;;;;;5116049;28;20834;-76
2021/06/05 05:52:03;;;;;;;32.63;26.10;;;21.00;91.90;;;;;;5115969;28;20550;-76
2021/06/05 05:54:29;;;;;;;31.80;27.40;;;20.90;91.80;;;;;;5116091;28;20443;-76
2021/06/05 05:56:56;;;;;;;37.57;26.97;;;20.90;92.10;;;;;;5115861;28;20443;-76
2021/06/05 05:59:23;;;;;;;30.53;26.80;;;20.80;92.30;;;;;;5115471;28;20474;-76
2021/06/05 06:01:49;;;;;;;40.20;30.33;;;20.70;92.40;;;;;;5115844;28;20491;-76
2021/06/05 06:04:16;;;;;;;35.90;26.80;;;20.50;92.40;;;;;;5115425;28;20435;-76
2021/06/05 06:06:42;;;;;;;36.63;27.90;;;20.50;93.00;;;;;;5115651;28;20435;-76
2021/06/05 06:09:09;;;;;;;36.87;29.77;;;20.50;93.20;;;;;;5115522;28;20471;-75
2021/06/05 06:11:35;;;;;;;37.00;29.37;;;20.40;93.40;;;;;;5115519;28;20478;-75
2021/06/05 06:14:01;;;;;;;41.60;29.87;;;20.50;93.70;;;;;;5116064;28;20451;-76
2021/06/05 06:16:30;;;;;;;37.53;29.00;;;20.50;93.60;;;;;;5115478;28;20439;-76
2021/06/05 06:18:57;;;;;;;38.80;30.57;;;20.50;93.40;;;;;;5115390;28;20498;-75
2021/06/05 06:21:24;;;;;;;39.63;32.00;;;20.50;93.60;;;;;;5115385;28;20443;-75
2021/06/05 06:23:51;;;;;;;37.67;30.00;;;20.60;93.60;;;;;;5116149;28;20787;-76
2021/06/05 06:26:19;;;;;;;37.37;29.03;;;20.60;93.50;;;;;;5115422;28;20451;-76
2021/06/05 06:28:46;;;;;;;39.30;30.33;;;20.60;93.20;;;;;;5115221;28;20475;-76
2021/06/05 06:31:15;;;;;;;44.47;31.20;;;20.70;93.30;;;;;;5115221;28;21007;-76
2021/06/05 06:33:42;;;;;;;38.77;29.63;;;20.70;93.00;;;;;;5115146;28;20439;-76
2021/06/05 06:36:09;;;;;;;36.13;30.00;;;20.60;92.80;;;;;;5115188;28;20443;-76
2021/06/05 06:38:38;;;;;;;39.10;30.83;;;20.60;93.30;;;;;;5114944;28;20518;-76
2021/06/05 06:41:07;;;;;;;40.50;30.80;;;20.70;93.10;;;;;;5115026;28;20466;-76
2021/06/05 06:43:33;;;;;;;47.93;33.83;;;20.60;93.40;;;;;;5114988;28;20454;-76
2021/06/05 06:46:03;;;;;;;37.73;32.33;;;20.60;93.10;;;;;;5114251;28;20976;-76
2021/06/05 06:48:30;;;;;;;42.83;32.40;;;20.60;93.00;;;;;;5114662;28;20516;-76
2021/06/05 06:50:58;;;;;;;42.17;32.37;;;20.50;93.20;;;;;;5114690;28;20471;-76
2021/06/05 06:53:24;;;;;;;42.40;32.40;;;20.50;93.10;;;;;;5114726;28;20492;-77
2021/06/05 06:55:51;;;;;;;42.30;33.30;;;20.50;93.30;;;;;;5114589;28;20493;-76
2021/06/05 06:58:17;;;;;;;40.90;32.30;;;20.50;93.40;;;;;;5114294;28;20462;-76
2021/06/05 07:00:46;;;;;;;42.60;31.30;;;20.60;92.80;;;;;;5114271;28;21035;-76
2021/06/05 07:03:12;;;;;;;36.63;30.60;;;20.70;93.30;;;;;;5114461;28;20861;-76
2021/06/05 07:05:39;;;;;;;38.87;29.03;;;20.70;93.00;;;;;;5114402;28;20488;-76
2021/06/05 07:08:09;;;;;;;33.20;29.50;;;20.80;92.40;;;;;;5114528;28;20831;-76
2021/06/05 07:10:36;;;;;;;34.17;29.00;;;20.90;92.50;;;;;;5114397;28;20463;-76
2021/06/05 07:13:02;;;;;;;34.40;28.30;;;20.90;92.30;;;;;;5114358;28;20462;-76
2021/06/05 07:15:29;;;;;;;33.90;28.60;;;20.90;92.60;;;;;;5114366;28;20449;-76
2021/06/05 07:17:55;;;;;;;38.17;29.83;;;21.00;92.50;;;;;;5114322;28;20447;-76
2021/06/05 07:20:21;;;;;;;42.67;31.57;;;21.10;92.20;;;;;;5114137;28;20496;-76
2021/06/05 07:22:48;;;;;;;37.83;31.80;;;21.00;92.10;;;;;;5114186;28;20447;-76
2021/06/05 07:25:15;;;;;;;45.97;32.60;;;20.90;92.10;;;;;;5115529;28;20442;-76
2021/06/05 07:27:42;;;;;;;42.03;34.40;;;20.90;92.20;;;;;;5114070;28;20465;-75
2021/06/05 07:30:09;;;;;;;43.43;32.63;;;20.80;92.50;;;;;;5114919;28;20451;-76
2021/06/05 07:32:36;;;;;;;42.13;33.77;;;20.80;92.80;;;;;;5114108;28;20438;-76
2021/06/05 07:35:02;;;;;;;40.30;33.07;;;20.80;92.90;;;;;;5113771;28;20944;-76
2021/06/05 07:37:28;;;;;;;40.43;35.07;;;20.80;93.10;;;;;;5114088;28;20446;-76
2021/06/05 07:39:55;;;;;;;41.67;34.27;;;20.90;93.10;;;;;;5113854;28;20462;-76
2021/06/05 07:42:23;;;;;;;42.23;34.17;;;21.00;92.90;;;;;;5114027;28;20439;-76
2021/06/05 07:44:50;;;;;;;44.03;35.57;;;21.10;92.70;;;;;;5113992;28;20438;-76
2021/06/05 07:47:17;;;;;;;42.20;34.67;;;21.30;92.20;;;;;;5113967;28;20925;-76
2021/06/05 07:49:43;;;;;;;41.10;33.77;;;21.40;92.10;;;;;;5114577;28;20496;-76
2021/06/05 07:52:12;;;;;;;43.87;33.53;;;21.50;92.20;;;;;;5113866;28;20479;-76
2021/06/05 07:54:38;;;;;;;45.63;36.30;;;21.60;91.50;;;;;;5113938;28;20427;-76
2021/06/05 07:57:06;;;;;;;42.30;34.37;;;21.60;91.50;;;;;;5114018;28;20442;-76
2021/06/05 07:59:33;;;;;;;46.03;35.30;;;21.60;91.60;;;;;;5116427;28;20490;-75
2021/06/05 08:01:59;;;;;;;40.53;32.77;;;21.60;91.60;;;;;;5118225;28;20434;-77
2021/06/05 08:04:26;;;;;;;40.57;34.10;;;21.70;91.40;;;;;;5118130;28;20430;-76
2021/06/05 08:06:55;;;;;;;38.00;32.90;;;21.80;91.30;;;;;;5118244;28;20932;-76
2021/06/05 08:09:22;;;;;;;38.47;32.97;;;21.90;91.40;;;;;;5118327;28;20479;-76
2021/06/05 08:11:48;;;;;;;37.37;32.27;;;22.00;91.00;;;;;;5118134;28;20559;-76
2021/06/05 08:14:14;;;;;;;42.23;31.90;;;21.90;90.60;;;;;;5118727;28;20443;-76
2021/06/05 08:16:42;;;;;;;37.10;31.20;;;22.00;90.70;;;;;;5118534;28;20438;-76
2021/06/05 08:19:12;;;;;;;35.00;31.00;;;22.10;90.90;;;;;;5118685;28;20830;-75
2021/06/05 08:21:39;;;;;;;42.33;34.03;;;22.20;90.20;;;;;;5118155;28;20952;-76
2021/06/05 08:24:07;;;;;;;38.00;31.70;;;22.20;90.40;;;;;;5118092;28;20438;-76
2021/06/05 08:26:33;;;;;;;36.53;31.13;;;22.30;90.00;;;;;;5118610;28;20496;-76
2021/06/05 08:28:59;;;;;;;34.50;29.63;;;22.40;89.60;;;;;;5117614;28;20466;-76
2021/06/05 08:31:25;;;;;;;34.80;28.10;;;22.60;89.20;;;;;;5118624;28;20478;-77
2021/06/05 08:33:53;;;;;;;35.77;27.00;;;22.70;89.50;;;;;;5118357;28;20537;-76
2021/06/05 08:36:23;;;;;;;31.47;26.53;;;22.80;87.50;;;;;;5117638;28;20442;-77
2021/06/05 08:38:50;;;;;;;33.60;27.60;;;22.90;88.00;;;;;;5118168;28;20467;-76
2021/06/05 08:41:22;;;;;;;34.63;28.03;;;23.00;86.10;;;;;;5118116;28;20443;-76
2021/06/05 08:43:51;;;;;;;36.13;28.87;;;22.90;86.00;;;;;;5117463;28;20434;-76
2021/06/05 08:46:26;;;;;;;34.23;29.00;;;22.80;86.20;;;;;;5117344;28;20450;-76
2021/06/05 08:48:57;;;;;;;37.70;29.87;;;22.70;86.50;;;;;;5117367;28;20469;-76
2021/06/05 08:51:30;;;;;;;37.27;30.20;;;22.50;87.90;;;;;;5117446;28;20462;-76
2021/06/05 08:54:07;;;;;;;36.20;30.40;;;22.50;87.90;;;;;;5117782;28;20431;-76
2021/06/05 08:56:36;;;;;;;33.30;28.77;;;22.60;88.70;;;;;;5117882;28;20431;-76
2021/06/05 08:59:03;;;;;;;41.10;30.43;;;22.40;87.20;;;;;;5117337;28;20474;-78
2021/06/05 09:01:37;;;;;;;38.80;30.80;;;22.40;89.00;;;;;;5117052;28;20990;-77
2021/06/05 09:04:10;;;;;;;41.67;32.00;;;22.20;89.30;;;;;;5117460;28;20434;-76
2021/06/05 09:06:39;;;;;;;37.87;31.30;;;22.20;90.00;;;;;;5117629;28;20433;-76
2021/06/05 09:09:07;;;;;;;37.43;29.20;;;22.20;90.00;;;;;;5117343;28;20455;-75
2021/06/05 09:11:34;;;;;;;41.47;32.10;;;22.30;89.40;;;;;;5117284;28;20882;-76
2021/06/05 09:14:00;;;;;;;45.83;33.53;;;22.30;89.00;;;;;;5117241;28;20477;-76
2021/06/05 09:16:36;;;;;;;45.87;33.47;;;22.30;89.00;;;;;;5116465;28;20967;-77
2021/06/05 09:19:12;;;;;;;53.70;37.13;;;22.20;89.60;;;;;;5116522;28;20470;-76
2021/06/05 09:21:42;;;;;;;49.70;38.50;;;22.10;90.00;;;;;;5116545;28;20431;-76
2021/06/05 09:24:15;;;;;;;51.67;35.57;;;22.10;89.80;;;;;;5116559;28;20431;-76
2021/06/05 09:26:44;;;;;;;54.70;38.67;;;22.10;89.70;;;;;;5116683;28;20463;-76
2021/06/05 09:29:13;;;;;;;56.37;38.37;;;22.00;90.20;;;;;;5116322;28;20467;-76
2021/06/05 09:31:59;;;;;;;60.17;37.07;;;21.90;90.10;;;;;;5116028;28;20467;-76
2021/06/05 09:34:31;;;;;;;62.10;38.60;;;21.90;90.50;;;;;;5116352;28;20427;-76
2021/06/05 09:36:57;;;;;;;57.20;38.60;;;21.80;91.00;;;;;;5115989;28;20917;-76
2021/06/05 09:39:40;;;;;;;58.50;37.60;;;21.80;91.10;;;;;;5115975;28;21007;-76
2021/06/05 09:42:08;;;;;;;61.47;38.53;;;21.90;91.40;;;;;;5115992;28;20450;-76
2021/06/05 09:44:42;;;;;;;57.30;35.77;;;21.90;91.00;;;;;;5115663;28;20439;-76
2021/06/05 09:47:23;;;;;;;54.40;35.47;;;22.00;90.40;;;;;;5116025;28;20427;-76
2021/06/05 09:49:56;;;;;;;56.20;36.27;;;22.00;90.10;;;;;;5115952;27;21011;-76
2021/06/05 09:52:35;;;;;;;58.03;37.37;;;22.20;89.90;;;;;;5115825;28;20471;-76
2021/06/05 09:55:26;;;;;;;53.73;36.00;;;22.30;88.30;;;;;;5115612;28;20439;-76
2021/06/05 09:57:53;;;;;;;52.47;36.10;;;22.40;87.90;;;;;;5116021;28;20435;-75
2021/06/05 10:00:26;;;;;;;62.13;40.70;;;22.60;88.30;;;;;;5116480;28;20993;-76
2021/06/05 10:03:11;;;;;;;64.37;43.10;;;22.70;86.50;;;;;;5116293;28;20522;-77
2021/06/05 10:05:41;;;;;;;58.07;38.90;;;22.80;86.10;;;;;;5116029;28;20439;-76
2021/06/05 10:08:21;;;;;;;63.33;42.47;;;23.00;85.70;;;;;;5115807;27;20470;-75
2021/06/05 10:10:52;;;;;;;64.07;42.60;;;23.20;85.30;;;;;;5116191;27;20455;-76
2021/06/05 10:13:23;;;;;;;65.80;44.00;;;23.40;85.10;;;;;;5115483;28;20430;-76
2021/06/05 10:15:54;;;;;;;68.47;45.23;;;23.60;83.40;;;;;;5115156;27;20484;-76
2021/06/05 10:18:24;;;;;;;68.80;46.00;;;23.90;83.50;;;;;;5115265;28;20463;-76
2021/06/05 10:20:56;;;;;;;75.30;49.20;;;24.10;83.00;;;;;;5114799;28;20443;-76
2021/06/05 10:23:26;;;;;;;76.43;52.30;;;24.50;78.60;;;;;;5114988;28;20901;-76
2021/06/05 10:25:56;;;;;;;81.00;54.10;;;24.50;77.20;;;;;;5115266;28;20435;-76
2021/06/05 10:28:28;;;;;;;76.30;52.80;;;24.50;77.50;;;;;;5115692;28;20477;-76
2021/06/05 10:31:01;;;;;;;84.33;57.50;;;24.70;76.60;;;;;;5115039;28;20527;-76
2021/06/05 10:33:39;;;;;;;86.53;58.13;;;24.80;76.00;;;;;;5114958;28;20450;-76
2021/06/05 10:36:13;;;;;;;84.70;58.30;;;24.80;75.00;;;;;;5114462;28;20510;-76
2021/06/05 10:38:42;;;;;;;86.60;58.47;;;24.70;75.10;;;;;;5114732;28;20829;-76
2021/06/05 10:41:13;;;;;;;78.67;56.90;;;24.70;75.50;;;;;;5114617;28;20470;-76
2021/06/05 10:43:40;;;;;;;83.77;58.73;;;24.70;75.50;;;;;;5114618;28;20434;-75
2021/06/05 10:46:16;;;;;;;92.33;62.27;;;24.60;75.90;;;;;;5114495;28;20435;-76
2021/06/05 10:48:44;;;;;;;88.07;60.70;;;24.50;75.50;;;;;;5114403;28;20466;-75
2021/06/05 10:51:17;;;;;;;86.27;59.20;;;24.20;76.30;;;;;;5114303;28;20467;-76
2021/06/05 10:53:53;;;;;;;95.73;63.23;;;24.10;77.50;;;;;;5114270;28;20428;-76
2021/06/05 10:56:30;;;;;;;94.83;67.20;;;24.00;77.80;;;;;;5114577;28;20487;-76
2021/06/05 10:58:57;;;;;;;96.77;64.50;;;24.00;79.20;;;;;;5114346;28;20487;-75
2021/06/05 11:01:46;;;;;;;103.47;69.20;;;23.90;78.90;;;;;;5114510;28;20466;-76
2021/06/05 11:04:43;;;;;;;93.37;67.20;;;24.00;79.20;;;;;;5114475;28;20447;-76
2021/06/05 11:07:21;;;;;;;98.97;65.77;;;24.00;78.90;;;;;;5114459;28;20433;-76
2021/06/05 11:09:50;;;;;;;93.50;65.63;;;23.90;77.70;;;;;;5114379;28;20459;-76
2021/06/05 11:12:43;;;;;;;87.43;63.03;;;23.80;78.10;;;;;;5114357;28;20532;-76
2021/06/05 11:15:48;;;;;;;90.67;68.80;;;23.80;79.10;;;;;;5114025;28;20431;-75
2021/06/05 11:18:32;;;;;;;95.00;67.60;;;23.60;79.20;;;;;;5114279;28;20466;-75
2021/06/05 11:20:59;;;;;;;110.00;71.73;;;23.30;80.10;;;;;;5114304;28;20840;-75
2021/06/05 11:23:31;;;;;;;110.23;74.10;;;23.00;80.50;;;;;;5114220;28;20794;-75
2021/06/05 11:26:20;;;;;;;127.00;81.30;;;22.80;82.90;;;;;;5114763;28;20441;-75
2021/06/05 11:28:50;;;;;;;126.93;87.17;;;22.50;84.20;;;;;;5113664;28;20976;-75
2021/06/05 11:31:44;;;;;;;142.40;96.17;;;22.40;84.30;;;;;;5114040;28;20462;-75
2021/06/05 11:34:26;;;;;;;132.90;90.30;;;22.00;85.30;;;;;;5112796;27;20966;-75
2021/06/05 11:36:52;;;;;;;138.60;90.30;;;21.80;86.90;;;;;;5113561;28;20439;-75
2021/06/05 11:39:47;;;;;;;143.60;90.70;;;21.60;88.90;;;;;;5113725;28;20471;-75
2021/06/05 11:42:53;;;;;;;144.33;96.07;;;21.60;89.30;;;;;;5113965;28;20450;-75
2021/06/05 11:45:50;;;;;;;144.80;93.90;;;21.50;90.00;;;;;;5113971;28;20453;-75
2021/06/05 11:48:49;;;;;;;139.73;95.67;;;21.60;90.30;;;;;;5113409;27;20878;-75
2021/06/05 11:51:33;;;;;;;131.47;90.47;;;21.70;89.50;;;;;;5113833;28;20509;-75
2021/06/05 11:54:03;;;;;;;139.80;89.57;;;21.90;89.50;;;;;;5113849;28;20453;-75
2021/06/05 11:56:34;;;;;;;130.30;87.57;;;22.00;88.70;;;;;;5113866;28;20940;-75
2021/06/05 11:59:27;;;;;;;118.63;86.87;;;22.20;88.60;;;;;;5113460;28;20854;-75
2021/06/05 12:02:03;;;;;;;124.30;84.50;;;22.30;87.30;;;;;;5113763;28;20415;-75
2021/06/05 12:04:36;;;;;;;127.97;89.37;;;22.20;87.20;;;;;;5113867;28;20434;-75
2021/06/05 12:07:20;;;;;;;124.17;86.53;;;22.00;87.50;;;;;;5114242;28;20443;-76
2021/06/05 12:09:48;;;;;;;123.90;85.00;;;21.70;88.40;;;;;;5114347;28;20474;-75
2021/06/05 12:12:16;;;;;;;124.13;85.67;;;21.50;90.00;;;;;;5113875;28;20895;-75
2021/06/05 12:14:47;;;;;;;124.10;84.17;;;21.20;90.40;;;;;;5113891;28;20450;-76
2021/06/05 12:17:28;;;;;;;123.00;82.70;;;21.10;90.50;;;;;;5113854;28;20431;-75
2021/06/05 12:20:04;;;;;;;106.70;75.47;;;20.90;90.80;;;;;;5113624;28;20467;-75
2021/06/05 12:22:32;;;;;;;113.13;76.10;;;20.90;91.20;;;;;;5113608;28;20468;-75
2021/06/05 12:24:59;;;;;;;128.40;82.03;;;20.80;91.10;;;;;;5113280;28;20431;-75
2021/06/05 12:27:32;;;;;;;120.07;81.87;;;20.70;91.20;;;;;;5113530;28;20443;-75
2021/06/05 12:30:15;;;;;;;112.57;79.77;;;20.70;91.70;;;;;;5113149;28;20474;-75
2021/06/05 12:32:53;;;;;;;104.70;77.20;;;20.60;91.80;;;;;;5113467;28;20467;-75
2021/06/05 12:35:21;;;;;;;103.43;71.53;;;20.70;92.00;;;;;;5113165;28;20807;-75
2021/06/05 12:37:50;;;;;;;100.90;71.93;;;20.60;91.50;;;;;;5113431;28;20861;-75
2021/06/05 12:40:19;;;;;;;91.73;67.93;;;20.70;91.80;;;;;;5113366;28;20450;-75